Página principal
METAR-TAF:

METAR-TAF

Aeroportos :

Chita, Rússia

latitude: 52-05N, longitude: 113-29E, altura: 685 m

Observação actual do tempo

O boletim foi feito há 28 minutos, às 16:30 UTC
Vento 4 kt de norte
Temperatura 14°C
Humidade 94%
Pressão 1008 hPa
Visibilidade 10 km ou mais

METAR: UIAA 231630Z AUTO 35002MPS 9999 NCD 14/13 Q1008 RMK QFE698/0930

Hora: 01:58 (16:58 UTC)

Previsão

O boletim foi feito há 2 horas e 58 minutos, às 14:00 UTC
Previsão válida de 23 às 15 UTC a 24 às 15 UTC
Vento 6 kt de oes-noroeste
Visibilidade 10 km ou mais

TAF: UIAA 231400Z 2315/2415 30003MPS 9999 NSC

Observações e previsões do tempo de mais de 4000 aeroportos (mensagens METAR e TAF).

As estações disponíveis são os pontos amarelos e vermelhos sobre o mapa.

Mova o rato sobre o mapa para ver o nome da estação.

Depois clique no ponto para visualizar as observações e previsões meteorológicas.

Para alterar o mapa : clique nos botões verdes com uma cruz preta para aumentar o zoom; no botão verde com uma pitada de zoom; ou nas setas verdes para mapas adjacentes.


METAR-TAF: